sensor_id;sensor_type;location;lat;lon;timestamp;pressure;altitude;pressure_sealevel;temperature;humidity
70127;BME280;57491;42.694;23.314;2022-11-20T00:02:24;94414.00;;;16.33;61.14
70127;BME280;57491;42.694;23.314;2022-11-20T00:04:51;94432.13;;;16.35;61.05
70127;BME280;57491;42.694;23.314;2022-11-20T00:07:18;94391.47;;;16.72;55.81
70127;BME280;57491;42.694;23.314;2022-11-20T00:09:47;94418.97;;;17.10;56.23
70127;BME280;57491;42.694;23.314;2022-11-20T00:12:14;94404.81;;;17.56;52.83
70127;BME280;57491;42.694;23.314;2022-11-20T00:14:41;94400.75;;;17.98;51.27
70127;BME280;57491;42.694;23.314;2022-11-20T00:17:08;94405.38;;;18.08;52.09
70127;BME280;57491;42.694;23.314;2022-11-20T00:19:35;94400.59;;;17.88;53.19
70127;BME280;57491;42.694;23.314;2022-11-20T00:22:02;94385.72;;;17.77;54.10
70127;BME280;57491;42.694;23.314;2022-11-20T00:24:29;94390.50;;;17.63;54.97
70127;BME280;57491;42.694;23.314;2022-11-20T00:26:58;94384.69;;;17.61;54.43
70127;BME280;57491;42.694;23.314;2022-11-20T00:29:25;94389.31;;;17.88;51.43
70127;BME280;57491;42.694;23.314;2022-11-20T00:31:52;94391.66;;;18.06;50.94
70127;BME280;57491;42.694;23.314;2022-11-20T00:34:19;94409.50;;;18.20;50.12
70127;BME280;57491;42.694;23.314;2022-11-20T00:36:46;94386.31;;;18.56;49.05
70127;BME280;57491;42.694;23.314;2022-11-20T00:39:13;94372.69;;;18.59;49.57
70127;BME280;57491;42.694;23.314;2022-11-20T00:41:40;94364.53;;;18.60;48.29
70127;BME280;57491;42.694;23.314;2022-11-20T00:44:08;94377.66;;;18.77;48.00
70127;BME280;57491;42.694;23.314;2022-11-20T00:46:35;94400.41;;;18.88;47.83
70127;BME280;57491;42.694;23.314;2022-11-20T00:49:03;94370.00;;;19.02;47.27
70127;BME280;57491;42.694;23.314;2022-11-20T00:51:30;94425.03;;;18.99;47.20
70127;BME280;57491;42.694;23.314;2022-11-20T00:53:57;94366.19;;;19.15;46.49
70127;BME280;57491;42.694;23.314;2022-11-20T00:56:25;94366.19;;;19.15;46.17
70127;BME280;57491;42.694;23.314;2022-11-20T00:58:52;94388.28;;;19.14;46.58
70127;BME280;57491;42.694;23.314;2022-11-20T01:01:23;94388.16;;;19.26;46.41
70127;BME280;57491;42.694;23.314;2022-11-20T01:03:52;94366.53;;;19.24;46.97
70127;BME280;57491;42.694;23.314;2022-11-20T01:06:22;94394.97;;;19.22;46.95
70127;BME280;57491;42.694;23.314;2022-11-20T01:08:50;94381.81;;;19.22;47.04
70127;BME280;57491;42.694;23.314;2022-11-20T01:11:19;94364.97;;;19.23;46.78
70127;BME280;57491;42.694;23.314;2022-11-20T01:13:47;94370.22;;;19.23;47.30
70127;BME280;57491;42.694;23.314;2022-11-20T01:16:17;94360.06;;;19.09;47.32
70127;BME280;57491;42.694;23.314;2022-11-20T01:18:47;94355.97;;;19.24;46.32
70127;BME280;57491;42.694;23.314;2022-11-20T01:21:17;94364.97;;;19.28;46.62
70127;BME280;57491;42.694;23.314;2022-11-20T01:23:45;94353.41;;;19.29;46.11
70127;BME280;57491;42.694;23.314;2022-11-20T01:26:14;94369.47;;;19.27;46.38
70127;BME280;57491;42.694;23.314;2022-11-20T01:28:42;94313.66;;;19.03;46.50
70127;BME280;57491;42.694;23.314;2022-11-20T01:31:14;94354.41;;;19.23;45.99
70127;BME280;57491;42.694;23.314;2022-11-20T01:33:43;94332.53;;;18.95;46.31
70127;BME280;57491;42.694;23.314;2022-11-20T01:36:12;94343.59;;;19.24;46.10
70127;BME280;57491;42.694;23.314;2022-11-20T01:38:39;94334.59;;;19.20;45.42
70127;BME280;57491;42.694;23.314;2022-11-20T01:41:09;94326.28;;;19.33;45.65
70127;BME280;57491;42.694;23.314;2022-11-20T01:43:36;94327.84;;;19.29;45.76
70127;BME280;57491;42.694;23.314;2022-11-20T01:46:16;94347.59;;;19.27;45.65
70127;BME280;57491;42.694;23.314;2022-11-20T01:48:50;94356.53;;;19.26;45.99
70127;BME280;57491;42.694;23.314;2022-11-20T01:51:25;94348.63;;;19.26;46.05
70127;BME280;57491;42.694;23.314;2022-11-20T01:53:58;94352.31;;;19.25;45.99
70127;BME280;57491;42.694;23.314;2022-11-20T01:56:27;94332.19;;;19.13;45.74
70127;BME280;57491;42.694;23.314;2022-11-20T01:58:58;94356.19;;;19.17;46.33
70127;BME280;57491;42.694;23.314;2022-11-20T02:01:26;94361.66;;;19.10;46.38
70127;BME280;57491;42.694;23.314;2022-11-20T02:03:54;94375.28;;;19.02;46.51
70127;BME280;57491;42.694;23.314;2022-11-20T02:06:25;94372.06;;;19.22;45.75
70127;BME280;57491;42.694;23.314;2022-11-20T02:08:53;94354.69;;;19.26;45.54
70127;BME280;57491;42.694;23.314;2022-11-20T02:11:21;94339.63;;;19.22;45.57
70127;BME280;57491;42.694;23.314;2022-11-20T02:13:48;94392.81;;;19.18;45.79
70127;BME280;57491;42.694;23.314;2022-11-20T02:16:19;94306.97;;;19.23;45.06
70127;BME280;57491;42.694;23.314;2022-11-20T02:18:46;94365.25;;;19.26;45.11
70127;BME280;57491;42.694;23.314;2022-11-20T02:21:30;94344.97;;;19.32;45.13
70127;BME280;57491;42.694;23.314;2022-11-20T02:24:06;94339.38;;;19.23;45.07
70127;BME280;57491;42.694;23.314;2022-11-20T02:26:40;94363.44;;;19.32;45.44
70127;BME280;57491;42.694;23.314;2022-11-20T02:29:09;94342.75;;;19.18;45.40
70127;BME280;57491;42.694;23.314;2022-11-20T02:31:38;94345.38;;;19.18;46.00
70127;BME280;57491;42.694;23.314;2022-11-20T02:34:07;94340.84;;;19.09;46.69
70127;BME280;57491;42.694;23.314;2022-11-20T02:36:35;94340.78;;;19.04;46.77
70127;BME280;57491;42.694;23.314;2022-11-20T02:39:04;94342.00;;;18.96;46.50
70127;BME280;57491;42.694;23.314;2022-11-20T02:41:33;94351.22;;;18.94;46.90
70127;BME280;57491;42.694;23.314;2022-11-20T02:44:01;94373.63;;;18.96;46.78
70127;BME280;57491;42.694;23.314;2022-11-20T02:46:28;94363.69;;;19.03;47.08
70127;BME280;57491;42.694;23.314;2022-11-20T02:48:55;94373.38;;;18.98;46.95
70127;BME280;57491;42.694;23.314;2022-11-20T02:51:22;94370.25;;;19.01;47.27
70127;BME280;57491;42.694;23.314;2022-11-20T02:53:50;94362.59;;;18.99;47.49
70127;BME280;57491;42.694;23.314;2022-11-20T02:56:18;94356.25;;;18.95;48.02
70127;BME280;57491;42.694;23.314;2022-11-20T02:58:46;94363.59;;;18.93;48.32
70127;BME280;57491;42.694;23.314;2022-11-20T03:01:13;94395.69;;;18.90;47.93
70127;BME280;57491;42.694;23.314;2022-11-20T03:03:40;94394.63;;;18.91;48.00
70127;BME280;57491;42.694;23.314;2022-11-20T03:06:07;94396.97;;;18.88;48.92
70127;BME280;57491;42.694;23.314;2022-11-20T03:08:34;94391.16;;;18.86;49.19
70127;BME280;57491;42.694;23.314;2022-11-20T03:11:03;94395.50;;;18.75;49.23
70127;BME280;57491;42.694;23.314;2022-11-20T03:13:33;94399.50;;;18.78;49.54
70127;BME280;57491;42.694;23.314;2022-11-20T03:16:08;94411.31;;;18.75;49.95
70127;BME280;57491;42.694;23.314;2022-11-20T03:18:35;94378.13;;;18.74;49.90
70127;BME280;57491;42.694;23.314;2022-11-20T03:21:03;94397.63;;;18.73;49.73
70127;BME280;57491;42.694;23.314;2022-11-20T03:23:30;94411.25;;;18.70;50.64
70127;BME280;57491;42.694;23.314;2022-11-20T03:26:13;94404.34;;;18.64;50.43
70127;BME280;57491;42.694;23.314;2022-11-20T03:28:46;94375.25;;;18.54;50.68
70127;BME280;57491;42.694;23.314;2022-11-20T03:31:15;94408.69;;;18.53;51.06
70127;BME280;57491;42.694;23.314;2022-11-20T03:33:42;94427.09;;;18.53;50.64
70127;BME280;57491;42.694;23.314;2022-11-20T03:36:12;94408.00;;;18.46;51.04
70127;BME280;57491;42.694;23.314;2022-11-20T03:38:40;94421.84;;;18.53;50.81
70127;BME280;57491;42.694;23.314;2022-11-20T03:41:10;94430.53;;;18.54;50.66
70127;BME280;57491;42.694;23.314;2022-11-20T03:43:37;94416.31;;;18.38;51.12
70127;BME280;57491;42.694;23.314;2022-11-20T03:46:07;94442.00;;;18.48;50.67
70127;BME280;57491;42.694;23.314;2022-11-20T03:48:34;94443.81;;;18.47;51.00
70127;BME280;57491;42.694;23.314;2022-11-20T03:51:09;94443.28;;;18.45;50.49
70127;BME280;57491;42.694;23.314;2022-11-20T03:53:36;94419.66;;;18.50;50.35
70127;BME280;57491;42.694;23.314;2022-11-20T03:56:04;94429.06;;;18.46;50.32
70127;BME280;57491;42.694;23.314;2022-11-20T03:58:32;94423.66;;;18.53;50.37
70127;BME280;57491;42.694;23.314;2022-11-20T04:01:06;94429.63;;;18.48;50.08
70127;BME280;57491;42.694;23.314;2022-11-20T04:03:33;94430.38;;;18.44;50.42
70127;BME280;57491;42.694;23.314;2022-11-20T04:06:02;94439.59;;;18.46;50.41
70127;BME280;57491;42.694;23.314;2022-11-20T04:08:30;94444.09;;;18.46;51.02
70127;BME280;57491;42.694;23.314;2022-11-20T04:11:08;94439.78;;;18.40;51.61
70127;BME280;57491;42.694;23.314;2022-11-20T04:13:35;94422.97;;;18.24;52.12
70127;BME280;57491;42.694;23.314;2022-11-20T04:16:02;94426.41;;;18.24;52.19
70127;BME280;57491;42.694;23.314;2022-11-20T04:18:31;94422.97;;;18.24;51.78
70127;BME280;57491;42.694;23.314;2022-11-20T04:20:58;94395.66;;;18.08;51.55
70127;BME280;57491;42.694;23.314;2022-11-20T04:23:25;94415.97;;;18.13;51.13
70127;BME280;57491;42.694;23.314;2022-11-20T04:25:52;94424.84;;;18.23;51.00
70127;BME280;57491;42.694;23.314;2022-11-20T04:28:20;94401.19;;;18.28;51.64
70127;BME280;57491;42.694;23.314;2022-11-20T04:30:47;94426.59;;;18.18;51.89
70127;BME280;57491;42.694;23.314;2022-11-20T04:33:14;94440.53;;;18.18;52.09
70127;BME280;57491;42.694;23.314;2022-11-20T04:35:43;94433.50;;;18.24;52.07
70127;BME280;57491;42.694;23.314;2022-11-20T04:38:12;94435.34;;;18.23;51.81
70127;BME280;57491;42.694;23.314;2022-11-20T04:40:39;94439.03;;;18.22;51.49
70127;BME280;57491;42.694;23.314;2022-11-20T04:43:07;94415.34;;;18.06;51.90
70127;BME280;57491;42.694;23.314;2022-11-20T04:45:34;94434.63;;;18.11;51.62
70127;BME280;57491;42.694;23.314;2022-11-20T04:48:01;94426.59;;;18.18;51.48
70127;BME280;57491;42.694;23.314;2022-11-20T04:50:28;94419.56;;;18.23;51.26
70127;BME280;57491;42.694;23.314;2022-11-20T04:52:56;94429.84;;;18.25;51.37
70127;BME280;57491;42.694;23.314;2022-11-20T04:55:23;94412.41;;;18.19;51.58
70127;BME280;57491;42.694;23.314;2022-11-20T04:57:50;94419.72;;;18.17;51.13
70127;BME280;57491;42.694;23.314;2022-11-20T05:00:18;94400.28;;;18.18;51.17
70127;BME280;57491;42.694;23.314;2022-11-20T05:02:45;94403.13;;;18.16;51.14
70127;BME280;57491;42.694;23.314;2022-11-20T05:05:12;94394.13;;;18.12;50.75
70127;BME280;57491;42.694;23.314;2022-11-20T05:07:39;94404.88;;;18.11;51.39
70127;BME280;57491;42.694;23.314;2022-11-20T05:10:08;94401.72;;;18.09;51.08
70127;BME280;57491;42.694;23.314;2022-11-20T05:12:35;94407.78;;;18.09;50.75
70127;BME280;57491;42.694;23.314;2022-11-20T05:15:03;94390.72;;;18.12;51.06
70127;BME280;57491;42.694;23.314;2022-11-20T05:17:30;94385.53;;;18.17;50.11
70127;BME280;57491;42.694;23.314;2022-11-20T05:19:57;94398.44;;;18.18;50.71
70127;BME280;57491;42.694;23.314;2022-11-20T05:22:24;94392.63;;;18.16;50.67
70127;BME280;57491;42.694;23.314;2022-11-20T05:24:51;94377.31;;;18.13;50.40
70127;BME280;57491;42.694;23.314;2022-11-20T05:27:20;94373.66;;;18.14;51.54
70127;BME280;57491;42.694;23.314;2022-11-20T05:29:47;94383.19;;;18.20;50.99
70127;BME280;57491;42.694;23.314;2022-11-20T05:32:14;94384.72;;;18.16;50.63
70127;BME280;57491;42.694;23.314;2022-11-20T05:34:41;94399.78;;;18.21;50.52
70127;BME280;57491;42.694;23.314;2022-11-20T05:37:08;94386.94;;;18.24;50.02
70127;BME280;57491;42.694;23.314;2022-11-20T05:39:35;94405.03;;;18.21;50.69
70127;BME280;57491;42.694;23.314;2022-11-20T05:42:02;94418.44;;;18.19;50.60
70127;BME280;57491;42.694;23.314;2022-11-20T05:44:56;94408.72;;;18.20;51.94
70127;BME280;57491;42.694;23.314;2022-11-20T05:47:24;94398.06;;;18.10;54.05
70127;BME280;57491;42.694;23.314;2022-11-20T05:49:51;94388.19;;;18.00;54.72
70127;BME280;57491;42.694;23.314;2022-11-20T05:52:18;94414.31;;;17.90;55.50
70127;BME280;57491;42.694;23.314;2022-11-20T05:54:45;94388.34;;;17.77;55.88
70127;BME280;57491;42.694;23.314;2022-11-20T05:57:12;94378.44;;;17.51;56.56
70127;BME280;57491;42.694;23.314;2022-11-20T05:59:39;94393.94;;;17.64;57.15
70127;BME280;57491;42.694;23.314;2022-11-20T06:02:08;94372.06;;;17.47;57.11
70127;BME280;57491;42.694;23.314;2022-11-20T06:04:35;94413.41;;;17.51;57.18
70127;BME280;57491;42.694;23.314;2022-11-20T06:07:02;94406.47;;;17.45;56.96
70127;BME280;57491;42.694;23.314;2022-11-20T06:09:29;94409.41;;;17.49;57.09
70127;BME280;57491;42.694;23.314;2022-11-20T06:11:56;94403.63;;;17.47;56.57
70127;BME280;57491;42.694;23.314;2022-11-20T06:14:23;94402.81;;;17.46;56.57
70127;BME280;57491;42.694;23.314;2022-11-20T06:16:50;94405.97;;;17.60;55.80
70127;BME280;57491;42.694;23.314;2022-11-20T06:19:19;94392.91;;;17.65;56.23
70127;BME280;57491;42.694;23.314;2022-11-20T06:21:47;94392.72;;;17.71;55.69
70127;BME280;57491;42.694;23.314;2022-11-20T06:24:14;94406.03;;;17.81;55.46
70127;BME280;57491;42.694;23.314;2022-11-20T06:26:41;94407.31;;;17.79;55.58
70127;BME280;57491;42.694;23.314;2022-11-20T06:29:08;94399.19;;;17.80;55.63
70127;BME280;57491;42.694;23.314;2022-11-20T06:31:36;94416.16;;;17.90;54.50
70127;BME280;57491;42.694;23.314;2022-11-20T06:34:03;94413.84;;;17.93;55.03
70127;BME280;57491;42.694;23.314;2022-11-20T06:36:32;94404.13;;;17.94;54.72
70127;BME280;57491;42.694;23.314;2022-11-20T06:39:00;94418.38;;;18.14;54.04
70127;BME280;57491;42.694;23.314;2022-11-20T06:41:27;94420.84;;;18.21;53.68
70127;BME280;57491;42.694;23.314;2022-11-20T06:43:54;94422.25;;;18.28;53.65
70127;BME280;57491;42.694;23.314;2022-11-20T06:46:22;94428.00;;;18.25;53.51
70127;BME280;57491;42.694;23.314;2022-11-20T06:48:49;94432.53;;;18.30;53.70
70127;BME280;57491;42.694;23.314;2022-11-20T06:51:17;94441.59;;;18.56;53.27
70127;BME280;57491;42.694;23.314;2022-11-20T06:53:45;94436.34;;;18.56;52.95
70127;BME280;57491;42.694;23.314;2022-11-20T06:56:12;94441.88;;;18.54;52.99
70127;BME280;57491;42.694;23.314;2022-11-20T06:58:40;94437.44;;;18.60;53.25
70127;BME280;57491;42.694;23.314;2022-11-20T07:01:09;94437.41;;;18.77;52.24
70127;BME280;57491;42.694;23.314;2022-11-20T07:03:37;94433.63;;;18.89;51.77
70127;BME280;57491;42.694;23.314;2022-11-20T07:06:05;94439.97;;;18.93;51.48
70127;BME280;57491;42.694;23.314;2022-11-20T07:08:33;94447.81;;;18.88;51.81
70127;BME280;57491;42.694;23.314;2022-11-20T07:11:04;94454.19;;;18.70;52.04
70127;BME280;57491;42.694;23.314;2022-11-20T07:13:32;94449.47;;;18.73;52.46
70127;BME280;57491;42.694;23.314;2022-11-20T07:15:59;94438.00;;;18.62;52.52
70127;BME280;57491;42.694;23.314;2022-11-20T07:18:26;94455.72;;;18.66;52.41
70127;BME280;57491;42.694;23.314;2022-11-20T07:20:54;94451.75;;;18.64;52.69
70127;BME280;57491;42.694;23.314;2022-11-20T07:23:21;94444.38;;;18.66;52.17
70127;BME280;57491;42.694;23.314;2022-11-20T07:25:48;94444.59;;;18.64;51.84
70127;BME280;57491;42.694;23.314;2022-11-20T07:28:16;94457.53;;;18.66;52.17
70127;BME280;57491;42.694;23.314;2022-11-20T07:30:49;94462.66;;;18.73;52.37
70127;BME280;57491;42.694;23.314;2022-11-20T07:33:16;94457.47;;;18.83;53.46
70127;BME280;57491;42.694;23.314;2022-11-20T07:35:44;94471.00;;;18.86;53.18
70127;BME280;57491;42.694;23.314;2022-11-20T07:38:11;94464.56;;;18.99;54.42
70127;BME280;57491;42.694;23.314;2022-11-20T07:40:38;94460.88;;;19.00;51.89
70127;BME280;57491;42.694;23.314;2022-11-20T07:43:06;94462.81;;;18.88;51.88
70127;BME280;57491;42.694;23.314;2022-11-20T07:45:34;94476.56;;;18.90;51.94
70127;BME280;57491;42.694;23.314;2022-11-20T07:48:02;94461.56;;;18.90;52.01
70127;BME280;57491;42.694;23.314;2022-11-20T07:50:29;94451.63;;;18.97;52.22
70127;BME280;57491;42.694;23.314;2022-11-20T07:53:01;94461.66;;;19.00;51.42
70127;BME280;57491;42.694;23.314;2022-11-20T07:55:28;94456.44;;;19.05;51.20
70127;BME280;57491;42.694;23.314;2022-11-20T07:57:55;94461.78;;;19.10;52.22
70127;BME280;57491;42.694;23.314;2022-11-20T08:00:22;94446.03;;;18.94;51.71
70127;BME280;57491;42.694;23.314;2022-11-20T08:02:51;94466.44;;;19.03;52.07
70127;BME280;57491;42.694;23.314;2022-11-20T08:05:18;94469.16;;;19.08;51.58
70127;BME280;57491;42.694;23.314;2022-11-20T08:07:45;94466.38;;;19.20;51.91
70127;BME280;57491;42.694;23.314;2022-11-20T08:10:14;94463.34;;;19.33;51.14
70127;BME280;57491;42.694;23.314;2022-11-20T08:12:45;94454.16;;;19.36;51.09
70127;BME280;57491;42.694;23.314;2022-11-20T08:15:30;94467.22;;;19.47;50.31
70127;BME280;57491;42.694;23.314;2022-11-20T08:18:03;94451.81;;;19.61;50.51
70127;BME280;57491;42.694;23.314;2022-11-20T08:20:31;94428.31;;;19.59;49.94
70127;BME280;57491;42.694;23.314;2022-11-20T08:22:59;94449.47;;;19.43;49.76
70127;BME280;57491;42.694;23.314;2022-11-20T08:25:27;94447.81;;;18.88;51.18
70127;BME280;57491;42.694;23.314;2022-11-20T08:27:57;94472.97;;;18.79;51.36
70127;BME280;57491;42.694;23.314;2022-11-20T08:30:24;94483.16;;;18.70;52.13
70127;BME280;57491;42.694;23.314;2022-11-20T08:32:52;94479.25;;;18.73;52.02
70127;BME280;57491;42.694;23.314;2022-11-20T08:35:20;94482.06;;;18.88;51.33
70127;BME280;57491;42.694;23.314;2022-11-20T08:37:47;94492.13;;;19.13;51.11
70127;BME280;57491;42.694;23.314;2022-11-20T08:40:15;94471.69;;;19.25;51.04
70127;BME280;57491;42.694;23.314;2022-11-20T08:42:46;94474.94;;;19.32;49.63
70127;BME280;57491;42.694;23.314;2022-11-20T08:45:14;94494.44;;;19.31;49.66
70127;BME280;57491;42.694;23.314;2022-11-20T08:47:41;94495.00;;;19.11;49.30
70127;BME280;57491;42.694;23.314;2022-11-20T08:50:09;94519.81;;;18.94;51.06
70127;BME280;57491;42.694;23.314;2022-11-20T08:52:38;94508.59;;;18.82;54.04
70127;BME280;57491;42.694;23.314;2022-11-20T08:55:06;94517.31;;;18.65;55.20
70127;BME280;57491;42.694;23.314;2022-11-20T08:57:33;94508.28;;;18.61;55.65
70127;BME280;57491;42.694;23.314;2022-11-20T09:00:01;94494.16;;;18.51;56.72
70127;BME280;57491;42.694;23.314;2022-11-20T09:02:28;94488.41;;;18.37;56.20
70127;BME280;57491;42.694;23.314;2022-11-20T09:04:56;94504.22;;;18.37;56.48
70127;BME280;57491;42.694;23.314;2022-11-20T09:07:23;94514.75;;;18.20;57.61
70127;BME280;57491;42.694;23.314;2022-11-20T09:09:51;94522.91;;;18.19;58.01
70127;BME280;57491;42.694;23.314;2022-11-20T09:12:18;94506.38;;;18.07;57.93
70127;BME280;57491;42.694;23.314;2022-11-20T09:14:45;94523.63;;;18.14;58.61
70127;BME280;57491;42.694;23.314;2022-11-20T09:17:12;94509.72;;;18.02;58.82
70127;BME280;57491;42.694;23.314;2022-11-20T09:19:40;94529.50;;;18.05;58.41
70127;BME280;57491;42.694;23.314;2022-11-20T09:22:07;94533.06;;;17.82;59.20
70127;BME280;57491;42.694;23.314;2022-11-20T09:24:35;94510.66;;;17.51;58.82
70127;BME280;57491;42.694;23.314;2022-11-20T09:27:04;94523.63;;;17.69;64.28
70127;BME280;57491;42.694;23.314;2022-11-20T09:29:31;94515.97;;;17.68;60.45
70127;BME280;57491;42.694;23.314;2022-11-20T09:31:58;94515.28;;;17.72;59.88
70127;BME280;57491;42.694;23.314;2022-11-20T09:34:25;94512.91;;;17.88;62.19
70127;BME280;57491;42.694;23.314;2022-11-20T09:36:53;94496.13;;;18.05;63.90
70127;BME280;57491;42.694;23.314;2022-11-20T09:39:20;94485.81;;;18.20;64.09
70127;BME280;57491;42.694;23.314;2022-11-20T09:42:22;94460.19;;;18.66;65.08
70127;BME280;57491;42.694;23.314;2022-11-20T09:45:05;94472.41;;;19.96;60.75
70127;BME280;57491;42.694;23.314;2022-11-20T09:47:47;94459.97;;;21.07;57.83
70127;BME280;57491;42.694;23.314;2022-11-20T09:50:26;94463.13;;;22.07;53.11
70127;BME280;57491;42.694;23.314;2022-11-20T09:53:07;94462.59;;;22.30;52.55
70127;BME280;57491;42.694;23.314;2022-11-20T09:55:37;94473.63;;;22.93;51.63
70127;BME280;57491;42.694;23.314;2022-11-20T09:58:07;94465.47;;;23.43;49.43
70127;BME280;57491;42.694;23.314;2022-11-20T10:00:39;94461.19;;;24.35;47.02
70127;BME280;57491;42.694;23.314;2022-11-20T10:03:13;94464.38;;;25.80;44.45
70127;BME280;57491;42.694;23.314;2022-11-20T10:05:45;94454.19;;;27.52;41.22
70127;BME280;57491;42.694;23.314;2022-11-20T10:08:19;94455.84;;;29.26;37.64
70127;BME280;57491;42.694;23.314;2022-11-20T10:10:52;94457.28;;;29.98;35.14
70127;BME280;57491;42.694;23.314;2022-11-20T10:13:31;94452.91;;;30.83;33.76
70127;BME280;57491;42.694;23.314;2022-11-20T10:16:12;94426.25;;;31.24;32.59
70127;BME280;57491;42.694;23.314;2022-11-20T10:18:53;94415.59;;;30.90;31.83
70127;BME280;57491;42.694;23.314;2022-11-20T10:21:27;94428.38;;;30.46;32.09
70127;BME280;57491;42.694;23.314;2022-11-20T10:24:33;94440.78;;;29.48;33.75
70127;BME280;57491;42.694;23.314;2022-11-20T10:27:08;94439.97;;;28.02;36.17
70127;BME280;57491;42.694;23.314;2022-11-20T10:29:46;94443.03;;;27.10;37.39
70127;BME280;57491;42.694;23.314;2022-11-20T10:32:16;94455.44;;;26.73;38.52
70127;BME280;57491;42.694;23.314;2022-11-20T10:34:48;94457.31;;;26.40;39.30
70127;BME280;57491;42.694;23.314;2022-11-20T10:37:21;94452.19;;;25.93;40.32
70127;BME280;57491;42.694;23.314;2022-11-20T10:39:53;94439.53;;;25.23;43.51
70127;BME280;57491;42.694;23.314;2022-11-20T10:42:28;94451.63;;;24.34;44.55
70127;BME280;57491;42.694;23.314;2022-11-20T10:45:09;94457.28;;;23.84;46.10
70127;BME280;57491;42.694;23.314;2022-11-20T10:47:40;94429.78;;;23.21;47.03
70127;BME280;57491;42.694;23.314;2022-11-20T10:50:11;94442.13;;;22.61;50.37
70127;BME280;57491;42.694;23.314;2022-11-20T10:52:47;94432.41;;;22.21;49.60
70127;BME280;57491;42.694;23.314;2022-11-20T10:55:27;94435.56;;;21.72;50.85
70127;BME280;57491;42.694;23.314;2022-11-20T10:58:02;94452.53;;;21.04;52.13
70127;BME280;57491;42.694;23.314;2022-11-20T11:00:34;94462.13;;;20.68;53.98
70127;BME280;57491;42.694;23.314;2022-11-20T11:03:01;94459.88;;;20.45;56.14
70127;BME280;57491;42.694;23.314;2022-11-20T11:05:36;94488.44;;;19.84;56.52
70127;BME280;57491;42.694;23.314;2022-11-20T11:08:10;94499.75;;;18.71;58.12
70127;BME280;57491;42.694;23.314;2022-11-20T11:10:43;94558.28;;;17.55;59.98
70127;BME280;57491;42.694;23.314;2022-11-20T11:13:20;94523.03;;;16.52;59.79
70127;BME280;57491;42.694;23.314;2022-11-20T11:15:48;94515.97;;;16.30;61.23
70127;BME280;57491;42.694;23.314;2022-11-20T11:18:23;94500.97;;;15.84;65.83
70127;BME280;57491;42.694;23.314;2022-11-20T11:20:52;94503.19;;;15.57;64.58
70127;BME280;57491;42.694;23.314;2022-11-20T11:23:30;94497.38;;;15.37;64.01
70127;BME280;57491;42.694;23.314;2022-11-20T11:25:59;94474.34;;;15.09;65.49
70127;BME280;57491;42.694;23.314;2022-11-20T11:28:27;94483.38;;;15.13;66.33
70127;BME280;57491;42.694;23.314;2022-11-20T11:30:56;94455.19;;;14.97;65.65
70127;BME280;57491;42.694;23.314;2022-11-20T11:33:24;94485.09;;;14.89;66.69
70127;BME280;57491;42.694;23.314;2022-11-20T11:35:54;94466.63;;;14.84;68.88
70127;BME280;57491;42.694;23.314;2022-11-20T11:38:29;94460.53;;;14.90;67.52
70127;BME280;57491;42.694;23.314;2022-11-20T11:40:57;94472.72;;;14.78;67.07
70127;BME280;57491;42.694;23.314;2022-11-20T11:43:27;94451.44;;;14.74;67.92
70127;BME280;57491;42.694;23.314;2022-11-20T11:46:25;94474.78;;;14.76;63.99
70127;BME280;57491;42.694;23.314;2022-11-20T11:48:55;94470.84;;;14.85;65.19
70127;BME280;57491;42.694;23.314;2022-11-20T11:51:26;94476.56;;;14.94;65.00
70127;BME280;57491;42.694;23.314;2022-11-20T11:53:58;94470.44;;;15.00;61.81
70127;BME280;57491;42.694;23.314;2022-11-20T11:56:26;94465.94;;;15.07;62.82
70127;BME280;57491;42.694;23.314;2022-11-20T11:58:57;94476.47;;;15.00;64.33
70127;BME280;57491;42.694;23.314;2022-11-20T12:01:33;94463.53;;;15.05;63.50
70127;BME280;57491;42.694;23.314;2022-11-20T12:04:08;94453.41;;;15.09;62.51
70127;BME280;57491;42.694;23.314;2022-11-20T12:06:43;94480.88;;;15.18;61.56
70127;BME280;57491;42.694;23.314;2022-11-20T12:09:11;94484.31;;;15.18;60.38
70127;BME280;57491;42.694;23.314;2022-11-20T12:11:39;94476.66;;;15.35;61.47
70127;BME280;57491;42.694;23.314;2022-11-20T12:14:14;94460.34;;;15.33;60.39
70127;BME280;57491;42.694;23.314;2022-11-20T12:16:46;94463.91;;;15.39;61.83
70127;BME280;57491;42.694;23.314;2022-11-20T12:19:14;94451.34;;;15.29;61.33
70127;BME280;57491;42.694;23.314;2022-11-20T12:21:48;94471.41;;;15.35;60.79
70127;BME280;57491;42.694;23.314;2022-11-20T12:24:33;94470.22;;;15.31;60.21
70127;BME280;57491;42.694;23.314;2022-11-20T12:27:17;94457.53;;;15.46;61.45
70127;BME280;57491;42.694;23.314;2022-11-20T12:29:54;94465.94;;;15.37;60.59
70127;BME280;57491;42.694;23.314;2022-11-20T12:32:52;94483.34;;;15.31;60.62
70127;BME280;57491;42.694;23.314;2022-11-20T12:35:51;94476.41;;;15.07;61.38
70127;BME280;57491;42.694;23.314;2022-11-20T12:38:39;94437.47;;;14.81;64.82
70127;BME280;57491;42.694;23.314;2022-11-20T12:41:16;94424.53;;;14.86;63.92
70127;BME280;57491;42.694;23.314;2022-11-20T12:44:07;94404.38;;;14.86;63.91
70127;BME280;57491;42.694;23.314;2022-11-20T12:47:12;94410.03;;;15.01;66.03
70127;BME280;57491;42.694;23.314;2022-11-20T12:49:50;94401.66;;;15.23;66.20
70127;BME280;57491;42.694;23.314;2022-11-20T12:52:38;94410.38;;;15.35;67.78
70127;BME280;57491;42.694;23.314;2022-11-20T12:55:16;94410.44;;;15.28;69.61
70127;BME280;57491;42.694;23.314;2022-11-20T12:57:53;94403.25;;;15.24;69.08
70127;BME280;57491;42.694;23.314;2022-11-20T13:00:22;94412.41;;;15.33;69.85
70127;BME280;57491;42.694;23.314;2022-11-20T13:03:04;94420.38;;;15.26;69.84
70127;BME280;57491;42.694;23.314;2022-11-20T13:05:43;94410.47;;;14.98;70.85
70127;BME280;57491;42.694;23.314;2022-11-20T13:08:19;94397.38;;;14.98;70.86